Time;durP1;ratioP1;P1;durP2;ratioP2;P2;SDS_P1;SDS_P2;PMS_P1;PMS_P2;Temp;Humidity;BMP_temperature;BMP_pressure;BME280_temperature;BME280_humidity;BME280_pressure;Samples;Min_cycle;Max_cycle;Signal;HPM_P1;HPM_P2
2024/04/18 02:33:15;;;;;;;4.25;1.52;;;;;;;2.92;nan;101060.19;5159985;27;20008;-95
2024/04/18 02:35:47;;;;;;;5.70;1.52;;;;;;;2.97;nan;101060.94;5419858;21;20026;-94
2024/04/18 04:23:46;;;;;;;6.35;2.10;;;;;;;2.30;nan;101135.84;5230948;22;20056;-96
2024/04/18 05:22:25;;;;;;;3.47;2.72;;;;;;;2.22;nan;101198.72;5639711;21;20047;-95
2024/04/18 05:35:18;;;;;;;9.98;2.95;;;;;;;2.37;nan;101239.34;6388010;21;20796;-95
2024/04/18 06:06:09;;;;;;;7.85;2.67;;;;;;;2.64;nan;101273.88;6085131;21;20005;-94
2024/04/18 06:08:34;;;;;;;6.78;2.80;;;;;;;2.61;nan;101266.28;5154374;27;20015;-95
2024/04/18 06:10:59;;;;;;;10.93;3.10;;;;;;;2.64;nan;101271.31;5156281;27;20009;-94
2024/04/18 06:13:27;;;;;;;6.68;3.22;;;;;;;2.62;nan;101270.50;5189789;27;20050;-96
2024/04/18 06:18:40;;;;;;;8.68;2.45;;;;;;;2.64;nan;101278.97;5426640;21;20056;-95
2024/04/18 06:23:41;;;;;;;7.88;2.78;;;;;;;2.81;nan;101298.34;5825026;21;20014;-94
2024/04/18 06:26:07;;;;;;;7.15;2.88;;;;;;;2.78;nan;101278.81;5304115;21;20011;-94
2024/04/18 06:28:33;;;;;;;5.97;2.35;;;;;;;2.95;nan;101294.75;5213919;27;20060;-95
2024/04/18 06:30:59;;;;;;;6.22;3.08;;;;;;;3.05;nan;101294.63;5216630;27;20360;-94
2024/04/18 06:33:29;;;;;;;5.95;3.05;;;;;;;3.12;nan;101291.13;5390761;22;20016;-95
2024/04/18 06:35:55;;;;;;;6.38;3.30;;;;;;;3.26;nan;101288.41;5221998;27;20012;-94
2024/04/18 06:38:21;;;;;;;6.22;3.10;;;;;;;3.46;nan;101285.56;5210247;27;20012;-95
2024/04/18 06:40:46;;;;;;;6.20;2.35;;;;;;;3.66;nan;101291.25;5169884;27;20001;-93
2024/04/18 06:43:12;;;;;;;11.10;2.40;;;;;;;4.05;nan;101296.59;5168222;27;20020;-94
2024/04/18 06:50:48;;;;;;;6.93;2.13;;;;;;;9.55;nan;101294.97;5292167;22;20019;-94
2024/04/18 06:53:13;;;;;;;9.70;2.40;;;;;;;10.00;nan;101304.34;5222289;27;20007;-96
2024/04/18 06:55:40;;;;;;;8.75;1.67;;;;;;;10.96;nan;101310.59;5224731;27;20010;-94
2024/04/18 07:00:42;;;;;;;4.78;2.03;;;;;;;12.19;nan;101298.69;5854077;22;20006;-96
2024/04/18 07:03:15;;;;;;;4.88;1.67;;;;;;;12.30;nan;101308.50;5208333;27;20095;-95
2024/04/18 07:08:16;;;;;;;12.30;2.30;;;;;;;13.94;nan;101316.13;5683696;22;20043;-96
2024/04/18 07:10:43;;;;;;;12.52;1.90;;;;;;;14.82;nan;101320.44;5549416;21;20081;-95
2024/04/18 07:16:32;;;;;;;6.38;2.08;;;;;;;14.04;nan;101322.44;5577276;21;20027;-96
2024/04/18 07:19:23;;;;;;;5.40;2.20;;;;;;;14.38;nan;101336.91;5551469;21;20023;31
2024/04/18 07:21:49;;;;;;;3.20;1.67;;;;;;;13.87;nan;101332.03;5167946;27;20002;-94
2024/04/18 07:27:05;;;;;;;7.30;1.70;;;;;;;14.19;nan;101333.69;5962377;22;20012;-96
2024/04/18 07:32:10;;;;;;;8.07;1.88;;;;;;;15.06;nan;101345.84;5312232;21;20008;-95
2024/04/18 07:34:35;;;;;;;5.22;1.33;;;;;;;15.26;nan;101349.81;5208606;27;20052;-95
2024/04/18 07:37:01;;;;;;;4.90;1.42;;;;;;;14.08;nan;101352.50;5217013;27;20000;-94
2024/04/18 07:39:26;;;;;;;7.88;1.77;;;;;;;13.63;nan;101344.66;5209157;27;20343;-94
2024/04/18 07:41:52;;;;;;;5.45;1.75;;;;;;;13.86;nan;101348.53;5184929;27;20448;-95
2024/04/18 07:44:17;;;;;;;4.57;1.63;;;;;;;13.91;nan;101348.28;5206631;27;20440;-95
2024/04/18 07:46:44;;;;;;;6.25;1.48;;;;;;;13.48;nan;101353.25;5194026;27;20000;-93
2024/04/18 07:49:10;;;;;;;5.65;1.13;;;;;;;13.87;nan;101359.75;5164091;27;20004;-93
2024/04/18 07:54:11;;;;;;;5.38;1.48;;;;;;;15.26;nan;101361.03;5547443;21;20091;-96
2024/04/18 07:56:36;;;;;;;11.05;2.28;;;;;;;14.78;nan;101370.94;5246650;27;20004;-95
2024/04/18 07:59:02;;;;;;;8.65;1.70;;;;;;;15.01;nan;101371.31;5219501;27;20010;-95
2024/04/18 08:01:28;;;;;;;9.55;2.08;;;;;;;15.18;nan;101384.09;5248067;27;20035;-96
2024/04/18 08:03:56;;;;;;;8.95;2.72;;;;;;;14.61;nan;101378.91;5258426;27;20003;-95
2024/04/18 08:06:22;;;;;;;9.02;2.20;;;;;;;15.46;nan;101396.25;5256323;27;20015;-94
2024/04/18 08:08:48;;;;;;;4.10;1.60;;;;;;;15.54;nan;101387.94;5253256;27;20086;-94
2024/04/18 08:11:15;;;;;;;10.63;2.78;;;;;;;14.92;nan;101376.16;5239611;27;20010;-94
2024/04/18 08:13:40;;;;;;;9.57;2.33;;;;;;;14.68;nan;101386.25;5321072;22;20011;-93
2024/04/18 08:16:06;;;;;;;7.32;1.90;;;;;;;15.73;nan;101380.66;5237702;27;20019;-94
2024/04/18 08:18:31;;;;;;;9.07;2.42;;;;;;;16.41;nan;101382.28;5230059;27;20126;-94
2024/04/18 08:20:58;;;;;;;6.70;2.20;;;;;;;15.72;nan;101394.59;5225726;27;20408;-94
2024/04/18 08:23:24;;;;;;;9.18;3.45;;;;;;;16.31;nan;101401.22;5237720;27;20345;-94
2024/04/18 08:25:49;;;;;;;13.35;2.15;;;;;;;16.44;nan;101396.88;5215845;27;20015;-93
2024/04/18 08:28:16;;;;;;;10.50;2.00;;;;;;;17.15;nan;101394.72;5233885;27;19995;-95
2024/04/18 08:30:44;;;;;;;8.43;1.80;;;;;;;16.45;nan;101401.97;5245640;27;20462;-96
2024/04/18 08:33:10;;;;;;;10.85;2.58;;;;;;;17.08;nan;101387.28;5234084;27;20460;-94
2024/04/18 08:35:36;;;;;;;5.70;2.15;;;;;;;16.81;nan;101395.25;5222032;27;20006;-95
2024/04/18 08:38:02;;;;;;;7.20;2.17;;;;;;;17.57;nan;101406.47;5195218;22;20005;-93
2024/04/18 08:40:28;;;;;;;9.90;1.80;;;;;;;17.63;nan;101389.53;5150934;27;20011;-95
2024/04/18 08:42:53;;;;;;;7.32;1.30;;;;;;;18.65;nan;101407.25;5152447;27;20042;-95
2024/04/18 08:45:24;;;;;;;10.60;1.70;;;;;;;18.47;nan;101400.81;5143728;27;20002;-95
2024/04/18 08:47:51;;;;;;;10.35;1.90;;;;;;;17.70;nan;101404.69;5141552;27;20489;-95
2024/04/18 08:50:22;;;;;;;7.65;1.40;;;;;;;18.86;nan;101401.38;5119677;27;19993;-94
2024/04/18 08:52:47;;;;;;;4.18;1.30;;;;;;;18.62;nan;101404.88;5146579;27;20111;-93
2024/04/18 08:55:13;;;;;;;12.77;2.00;;;;;;;18.38;nan;101404.94;5117316;27;20070;-94
2024/04/18 09:00:49;;;;;;;4.38;1.23;;;;;;;19.48;nan;101398.22;5715561;21;20003;-94
2024/04/18 09:06:17;;;;;;;4.65;0.98;;;;;;;17.46;nan;101409.88;5241408;22;20016;-95
2024/04/18 09:08:43;;;;;;;10.65;0.82;;;;;;;17.92;nan;101403.13;5546579;21;20051;-95
2024/04/18 09:11:08;;;;;;;5.20;0.98;;;;;;;17.18;nan;101407.53;5215731;27;20022;-94
2024/04/18 09:13:34;;;;;;;5.93;0.77;;;;;;;16.20;nan;101404.56;5215537;27;20000;-96
2024/04/18 09:16:00;;;;;;;1.95;0.60;;;;;;;16.39;nan;101404.19;5201369;27;20008;-95
2024/04/18 09:18:28;;;;;;;4.88;0.77;;;;;;;16.55;nan;101399.59;5161893;27;20054;-94
2024/04/18 09:20:56;;;;;;;4.45;0.68;;;;;;;17.23;nan;101401.03;5168418;27;20008;-96
2024/04/18 09:23:22;;;;;;;4.60;0.77;;;;;;;18.99;nan;101400.28;5186826;27;20000;-95
2024/04/18 09:25:57;;;;;;;1.88;0.47;;;;;;;19.22;nan;101398.50;5548185;22;20353;-95
2024/04/18 09:38:49;;;;;;;5.55;0.80;;;;;;;17.95;nan;101390.69;5397613;22;20015;-96
2024/04/18 09:41:23;;;;;;;6.43;1.92;;;;;;;16.63;nan;101386.91;5354155;22;20015;-95
2024/04/18 09:51:39;;;;;;;2.42;0.75;;;;;;;15.76;nan;101383.06;5685622;22;20032;-95
2024/04/18 09:56:51;;;;;;;3.92;1.23;;;;;;;17.94;nan;101372.50;5252526;22;20015;-96
2024/04/18 09:59:18;;;;;;;5.13;1.00;;;;;;;18.42;nan;101379.44;5192115;27;20000;-95
2024/04/18 10:01:43;;;;;;;3.80;0.70;;;;;;;18.19;nan;101379.34;5437821;22;20016;-95
2024/04/18 10:04:09;;;;;;;2.70;0.70;;;;;;;17.59;nan;101380.28;5211289;27;20507;-95
2024/04/18 10:06:38;;;;;;;2.67;0.90;;;;;;;17.62;nan;101374.84;5220805;27;20010;-95
2024/04/18 10:09:09;;;;;;;3.60;0.70;;;;;;;17.79;nan;101371.81;5208623;27;20087;-95
2024/04/18 10:11:37;;;;;;;4.80;0.90;;;;;;;17.06;nan;101372.69;5190664;27;20023;-96
2024/04/18 10:19:29;;;;;;;4.97;0.80;;;;;;;17.99;nan;101372.16;5588391;21;20064;-96
2024/04/18 10:21:59;;;;;;;3.33;0.70;;;;;;;17.84;nan;101380.19;5252532;22;20011;-96
2024/04/18 10:24:35;;;;;;;4.07;1.00;;;;;;;18.87;nan;101358.56;5449036;21;20351;-96
2024/04/18 10:30:14;;;;;;;5.47;0.85;;;;;;;18.16;nan;101390.03;5256790;22;20621;-95
2024/04/18 10:32:41;;;;;;;3.92;0.90;;;;;;;16.67;nan;101382.28;5256646;27;20089;-92
2024/04/18 10:35:07;;;;;;;7.20;0.98;;;;;;;16.84;nan;101373.34;5225296;27;20000;-94
2024/04/18 10:37:33;;;;;;;4.75;0.90;;;;;;;16.63;nan;101381.69;5211677;27;20000;-93
2024/04/18 10:39:59;;;;;;;7.75;1.27;;;;;;;17.15;nan;101384.28;5209869;27;20000;-93
2024/04/18 10:42:24;;;;;;;2.80;0.80;;;;;;;17.43;nan;101383.13;5211392;27;20087;-94
2024/04/18 10:44:50;;;;;;;7.55;1.75;;;;;;;16.81;nan;101378.78;5224750;27;20323;-93
2024/04/18 10:52:27;;;;;;;7.15;1.50;;;;;;;17.74;nan;101364.31;5916616;22;20008;-96
2024/04/18 10:54:53;;;;;;;7.55;1.10;;;;;;;17.60;nan;101361.88;5219103;27;20032;-96
2024/04/18 10:57:18;;;;;;;8.02;1.60;;;;;;;18.25;nan;101365.84;5202284;27;20004;-96
2024/04/18 10:59:46;;;;;;;4.85;1.10;;;;;;;18.17;nan;101355.13;5183680;27;20000;-94
2024/04/18 11:02:11;;;;;;;2.20;0.80;;;;;;;17.74;nan;101358.28;5179089;27;20004;-95
2024/04/18 11:04:36;;;;;;;3.28;0.88;;;;;;;18.06;nan;101358.53;5178283;27;20012;-94
2024/04/18 11:07:02;;;;;;;4.50;1.10;;;;;;;18.67;nan;101363.53;5178012;27;20057;-93
2024/04/18 11:09:28;;;;;;;3.65;1.10;;;;;;;18.48;nan;101363.25;5178957;27;20420;-94
2024/04/18 11:11:54;;;;;;;4.30;1.42;;;;;;;18.77;nan;101353.22;5179391;27;20466;-92
2024/04/18 11:14:21;;;;;;;6.20;1.65;;;;;;;18.64;nan;101353.31;5179713;27;20015;-93
2024/04/18 11:16:54;;;;;;;8.52;1.45;;;;;;;18.90;nan;101353.09;5179860;27;20435;-96
2024/04/18 11:19:20;;;;;;;4.97;1.50;;;;;;;19.84;nan;101349.09;5178178;27;20033;-92
2024/04/18 11:21:47;;;;;;;4.22;1.20;;;;;;;19.60;nan;101341.41;5179568;27;20001;-93
2024/04/18 11:24:13;;;;;;;3.95;1.10;;;;;;;20.33;nan;101349.41;5179674;27;20001;-95
2024/04/18 11:26:39;;;;;;;3.80;0.98;;;;;;;19.32;nan;101345.44;5178122;27;20087;-95
2024/04/18 11:29:07;;;;;;;2.28;1.10;;;;;;;18.71;nan;101338.81;5179745;27;20456;-94
2024/04/18 11:31:32;;;;;;;7.05;0.90;;;;;;;20.00;nan;101335.56;5180003;27;20001;-93
2024/04/18 11:33:58;;;;;;;5.60;1.20;;;;;;;20.92;nan;101331.22;5179783;27;20001;-93
2024/04/18 11:36:24;;;;;;;5.28;1.02;;;;;;;20.67;nan;101327.25;5179210;27;20001;-96
2024/04/18 11:38:50;;;;;;;4.30;1.10;;;;;;;20.72;nan;101329.47;5179685;27;20005;-96
2024/04/18 11:41:16;;;;;;;4.85;1.13;;;;;;;21.79;nan;101327.06;5179539;27;20565;-93
2024/04/18 11:43:42;;;;;;;8.57;1.23;;;;;;;20.83;nan;101326.78;5179261;27;20028;-95
2024/04/18 11:46:07;;;;;;;3.60;1.00;;;;;;;21.37;nan;101330.75;5179359;27;19996;-93
2024/04/18 11:48:32;;;;;;;5.28;1.00;;;;;;;21.42;nan;101329.56;5179204;27;20080;-93
2024/04/18 11:50:58;;;;;;;3.40;0.98;;;;;;;22.17;nan;101320.09;5177601;27;20040;-94
2024/04/18 11:53:23;;;;;;;2.55;0.70;;;;;;;22.34;nan;101323.81;5179346;27;20004;-95
2024/04/18 11:55:49;;;;;;;3.13;0.85;;;;;;;21.82;nan;101323.31;5179399;27;20005;-94
2024/04/18 11:58:14;;;;;;;3.90;1.10;;;;;;;20.35;nan;101326.53;5179060;27;20006;-95
2024/04/18 12:00:39;;;;;;;2.85;0.60;;;;;;;20.81;nan;101318.19;5178935;27;20195;-95
2024/04/18 12:03:05;;;;;;;3.88;0.80;;;;;;;21.64;nan;101315.31;5179226;27;20083;-95
2024/04/18 12:05:31;;;;;;;4.90;0.80;;;;;;;21.86;nan;101319.44;5177508;27;20015;-94
2024/04/18 12:07:56;;;;;;;5.40;1.15;;;;;;;21.19;nan;101327.16;5178861;27;19996;-94
2024/04/18 12:10:21;;;;;;;2.50;1.00;;;;;;;20.52;nan;101324.13;5179499;27;19996;-95
2024/04/18 12:12:47;;;;;;;5.50;1.20;;;;;;;22.54;nan;101314.88;5177401;27;20008;-95
2024/04/18 12:15:12;;;;;;;3.45;1.10;;;;;;;21.13;nan;101318.00;5178147;27;20463;-95
2024/04/18 12:17:38;;;;;;;7.03;1.17;;;;;;;21.18;nan;101312.34;5177565;27;20008;-94
2024/04/18 12:20:03;;;;;;;3.42;0.90;;;;;;;22.27;nan;101301.69;5177478;27;20453;-95
2024/04/18 12:22:29;;;;;;;3.95;1.10;;;;;;;22.73;nan;101299.97;5177314;27;20084;-95
2024/04/18 12:24:54;;;;;;;7.13;1.20;;;;;;;22.35;nan;101297.34;5178956;27;20032;-95
2024/04/18 12:27:20;;;;;;;3.00;1.00;;;;;;;22.05;nan;101303.66;5178915;27;20081;-93
2024/04/18 12:29:47;;;;;;;4.50;1.27;;;;;;;21.43;nan;101302.31;5178829;27;20004;-96
2024/04/18 12:32:14;;;;;;;3.83;0.90;;;;;;;21.05;nan;101291.59;5178935;27;20019;-94
2024/04/18 12:34:39;;;;;;;5.60;1.10;;;;;;;19.15;nan;101297.06;5178900;27;20005;-94
2024/04/18 12:37:05;;;;;;;3.40;1.17;;;;;;;19.73;nan;101289.72;5178232;27;20428;-94
2024/04/18 12:39:30;;;;;;;4.40;0.90;;;;;;;19.99;nan;101279.69;5179000;27;20007;-95
2024/04/18 12:41:56;;;;;;;3.72;1.10;;;;;;;20.10;nan;101269.13;5177793;27;20012;-95
2024/04/18 12:44:22;;;;;;;4.22;1.05;;;;;;;19.04;nan;101276.97;5178206;27;20005;-96
2024/04/18 12:46:47;;;;;;;3.75;1.00;;;;;;;18.12;nan;101271.06;5179328;27;20004;-94
2024/04/18 12:49:13;;;;;;;3.92;0.90;;;;;;;17.65;nan;101280.63;5179057;27;20001;-95
2024/04/18 12:51:38;;;;;;;3.20;0.68;;;;;;;17.35;nan;101274.09;5178817;27;20000;-96
2024/04/18 12:54:05;;;;;;;2.45;0.90;;;;;;;18.60;nan;101270.81;5178109;27;20004;-93
2024/04/18 12:56:31;;;;;;;1.73;0.55;;;;;;;19.67;nan;101274.47;5177859;27;20016;-96
2024/04/18 12:58:56;;;;;;;1.70;0.60;;;;;;;20.95;nan;101270.59;5179309;27;20012;-94
2024/04/18 13:01:21;;;;;;;3.65;0.50;;;;;;;20.56;nan;101260.94;5178569;27;20004;-93
2024/04/18 13:03:47;;;;;;;0.98;0.45;;;;;;;21.26;nan;101265.22;5178846;27;20016;-96
2024/04/18 13:06:14;;;;;;;1.98;0.40;;;;;;;20.71;nan;101275.38;5178519;27;20016;-95
2024/04/18 13:08:39;;;;;;;3.00;0.43;;;;;;;19.75;nan;101271.25;5178289;27;20001;-93
2024/04/18 13:11:05;;;;;;;0.77;0.35;;;;;;;20.29;nan;101270.22;5172727;27;20405;-95
2024/04/18 13:13:30;;;;;;;0.68;0.30;;;;;;;21.02;nan;101267.41;5173638;27;20013;-95
2024/04/18 13:15:55;;;;;;;3.95;0.50;;;;;;;20.25;nan;101274.03;5173085;27;19997;-95
2024/04/18 13:18:21;;;;;;;1.25;0.30;;;;;;;19.56;nan;101266.69;5172817;27;20012;-92
2024/04/18 13:20:48;;;;;;;1.95;0.43;;;;;;;19.27;nan;101277.75;5172801;27;20001;-94
2024/04/18 13:23:13;;;;;;;3.05;0.73;;;;;;;19.57;nan;101271.78;5172423;27;20332;-95
2024/04/18 13:25:39;;;;;;;3.15;0.60;;;;;;;18.91;nan;101273.69;5203633;27;20004;-95
2024/04/18 13:28:06;;;;;;;1.60;0.60;;;;;;;19.25;nan;101275.25;5176935;27;20019;-94
2024/04/18 13:30:31;;;;;;;5.38;0.77;;;;;;;18.87;nan;101267.84;5174588;27;20041;-94
2024/04/18 13:32:56;;;;;;;2.88;0.50;;;;;;;17.68;nan;101259.50;5172478;27;20012;-94
2024/04/18 13:35:22;;;;;;;3.22;0.75;;;;;;;18.15;nan;101260.38;5177876;27;20023;-94
2024/04/18 13:37:47;;;;;;;6.97;0.63;;;;;;;17.43;nan;101269.13;5178502;27;20004;-95
2024/04/18 13:40:12;;;;;;;3.38;1.23;;;;;;;17.61;nan;101268.75;5177913;27;20080;-95
2024/04/18 13:42:38;;;;;;;4.57;0.70;;;;;;;17.52;nan;101265.03;5178059;27;20048;-93
2024/04/18 13:45:03;;;;;;;2.67;0.77;;;;;;;17.95;nan;101267.94;5178384;27;20448;-94
2024/04/18 13:47:29;;;;;;;2.85;0.50;;;;;;;18.01;nan;101261.41;5177938;27;20455;-95
2024/04/18 13:49:54;;;;;;;1.88;0.40;;;;;;;18.10;nan;101249.44;5177892;27;20020;-96
2024/04/18 13:52:19;;;;;;;0.80;0.25;;;;;;;17.91;nan;101258.66;5178158;27;20072;-94
2024/04/18 13:54:48;;;;;;;2.00;0.30;;;;;;;18.21;nan;101252.03;5177360;27;20000;-95
2024/04/18 13:57:15;;;;;;;2.25;0.50;;;;;;;17.24;nan;101255.75;5174421;27;20347;-95
2024/04/18 13:59:42;;;;;;;5.57;0.30;;;;;;;17.81;nan;101255.06;5177174;27;20001;-95
2024/04/18 14:02:09;;;;;;;1.40;0.40;;;;;;;17.76;nan;101254.56;5177783;27;20339;-94
2024/04/18 14:04:35;;;;;;;0.10;0.08;;;;;;;17.28;nan;101241.56;5178269;27;20023;-95
2024/04/18 14:07:00;;;;;;;0.43;0.10;;;;;;;17.99;nan;101236.34;5178291;27;20016;-94
2024/04/18 14:09:33;;;;;;;1.58;0.20;;;;;;;17.22;nan;101242.84;5177671;27;20012;-95
2024/04/18 14:11:59;;;;;;;0.35;0.10;;;;;;;16.74;nan;101239.34;5176985;27;20011;-95
2024/04/18 14:14:24;;;;;;;2.25;0.22;;;;;;;16.82;nan;101239.66;5179344;27;20024;-96
2024/04/18 14:19:34;;;;;;;4.75;0.43;;;;;;;17.08;nan;101229.97;5180067;27;20011;-94
2024/04/18 14:21:59;;;;;;;1.42;0.30;;;;;;;16.57;nan;101225.72;5178617;27;20000;-94
2024/04/18 14:24:24;;;;;;;1.25;0.50;;;;;;;16.60;nan;101222.88;5178888;27;20076;-96
2024/04/18 14:26:50;;;;;;;2.78;0.45;;;;;;;16.33;nan;101225.63;5176981;27;20448;-94
2024/04/18 14:29:15;;;;;;;2.92;0.50;;;;;;;16.54;nan;101236.34;5178127;27;20001;-95
2024/04/18 14:31:40;;;;;;;4.90;0.30;;;;;;;16.39;nan;101222.63;5177712;27;20325;-94
2024/04/18 14:34:06;;;;;;;4.95;0.40;;;;;;;16.11;nan;101207.22;5177948;27;20392;-94
2024/04/18 14:36:31;;;;;;;9.55;0.57;;;;;;;15.62;nan;101208.72;5177470;27;20000;-95
2024/04/18 14:38:56;;;;;;;7.07;0.60;;;;;;;15.58;nan;101202.91;5177551;27;20001;-94
2024/04/18 14:41:22;;;;;;;1.15;0.35;;;;;;;15.55;nan;101200.47;5174954;27;20014;-95
2024/04/18 14:43:47;;;;;;;2.28;0.40;;;;;;;15.56;nan;101191.75;5174690;27;20044;-95
2024/04/18 14:46:12;;;;;;;2.15;0.28;;;;;;;15.78;nan;101201.59;5176848;27;20473;-95
2024/04/18 14:48:39;;;;;;;0.68;0.10;;;;;;;15.92;nan;101199.81;5177544;27;20414;-94
2024/04/18 14:51:05;;;;;;;3.15;0.60;;;;;;;15.71;nan;101205.56;5178792;27;20446;-94
2024/04/18 14:53:31;;;;;;;1.75;0.25;;;;;;;15.94;nan;101195.34;5177834;27;20015;-95
2024/04/18 14:55:56;;;;;;;2.88;0.35;;;;;;;15.73;nan;101188.06;5177630;27;20004;-94
2024/04/18 14:58:21;;;;;;;0.65;0.20;;;;;;;15.91;nan;101201.59;5181625;27;20036;-93
2024/04/18 15:00:51;;;;;;;0.90;0.20;;;;;;;15.54;nan;101198.00;5177390;27;19997;-95
2024/04/18 15:03:16;;;;;;;3.83;0.20;;;;;;;15.41;nan;101206.63;5177213;27;20001;-92
2024/04/18 15:06:10;;;;;;;1.15;0.43;;;;;;;15.19;nan;101203.72;5175625;27;20005;-93
2024/04/18 15:08:42;;;;;;;2.15;0.20;;;;;;;15.48;nan;101199.22;5173648;27;20444;-96
2024/04/18 15:11:08;;;;;;;2.63;0.20;;;;;;;15.56;nan;101196.13;5177701;27;20261;-95
2024/04/18 15:13:35;;;;;;;5.03;0.38;;;;;;;15.66;nan;101202.41;5177349;27;20007;-96
2024/04/18 15:16:00;;;;;;;1.23;0.50;;;;;;;15.62;nan;101196.53;5177393;27;20083;-95
2024/04/18 15:18:25;;;;;;;5.00;0.50;;;;;;;15.44;nan;101192.56;5176836;27;20468;-94
2024/04/18 15:20:51;;;;;;;3.00;0.50;;;;;;;15.26;nan;101193.75;5175320;27;20014;-94
2024/04/18 15:23:16;;;;;;;0.73;0.20;;;;;;;15.40;nan;101197.13;5155305;27;20004;-95
2024/04/18 15:25:42;;;;;;;3.55;0.40;;;;;;;15.10;nan;101191.34;5152299;27;20000;-96
2024/04/18 15:28:07;;;;;;;4.70;0.73;;;;;;;14.80;nan;101176.75;5146834;27;20001;-95
2024/04/18 15:30:33;;;;;;;2.80;0.57;;;;;;;14.94;nan;101168.91;5144841;27;20009;-94
2024/04/18 15:32:58;;;;;;;5.80;0.57;;;;;;;15.18;nan;101176.06;5144109;27;20001;-95
2024/04/18 15:35:23;;;;;;;1.55;0.32;;;;;;;15.23;nan;101174.00;5163523;27;20052;-93
2024/04/18 15:37:49;;;;;;;3.40;0.28;;;;;;;14.99;nan;101172.03;5176838;27;20012;-94
2024/04/18 15:40:14;;;;;;;0.77;0.20;;;;;;;14.80;nan;101175.91;5175626;27;20011;-94
2024/04/18 15:42:39;;;;;;;8.45;0.85;;;;;;;14.38;nan;101175.88;5176846;27;20000;-91
2024/04/18 15:45:05;;;;;;;2.05;0.43;;;;;;;14.09;nan;101177.66;5177051;27;20011;-94
2024/04/18 15:47:32;;;;;;;3.70;0.63;;;;;;;14.58;nan;101179.03;5176949;27;20087;-94
2024/04/18 15:49:58;;;;;;;1.98;0.47;;;;;;;14.54;nan;101176.63;5176721;27;20011;-94
2024/04/18 15:52:23;;;;;;;4.10;0.50;;;;;;;14.60;nan;101179.78;5175003;27;20004;-95
2024/04/18 15:54:48;;;;;;;3.30;0.50;;;;;;;14.25;nan;101183.59;5176689;27;20011;-92
2024/04/18 15:57:14;;;;;;;2.75;0.40;;;;;;;14.22;nan;101185.56;5179083;27;19997;-94
2024/04/18 15:59:39;;;;;;;1.80;0.50;;;;;;;13.97;nan;101176.63;5180151;27;20075;-94
2024/04/18 16:02:05;;;;;;;2.35;0.60;;;;;;;13.59;nan;101181.50;5180104;27;20072;-95
2024/04/18 16:04:31;;;;;;;8.27;0.57;;;;;;;13.14;nan;101168.44;5179767;27;20405;-96
2024/04/18 16:06:56;;;;;;;1.95;0.65;;;;;;;13.14;nan;101180.56;5178078;27;20004;-94
2024/04/18 16:09:23;;;;;;;3.47;0.90;;;;;;;13.13;nan;101161.59;5179969;27;20447;-94
2024/04/18 16:11:48;;;;;;;2.58;0.52;;;;;;;13.18;nan;101161.34;5179759;27;20323;-96
2024/04/18 16:14:13;;;;;;;4.25;1.05;;;;;;;12.99;nan;101169.31;5180586;27;20004;-95
2024/04/18 16:16:40;;;;;;;3.45;0.50;;;;;;;12.69;nan;101169.25;5180344;27;20000;-94
2024/04/18 16:19:06;;;;;;;2.33;0.60;;;;;;;12.97;nan;101163.38;5179801;27;19996;-96
2024/04/18 16:21:32;;;;;;;5.40;0.50;;;;;;;12.82;nan;101168.47;5178619;27;20044;-94
2024/04/18 16:23:58;;;;;;;4.15;1.00;;;;;;;13.02;nan;101166.53;5179618;27;19996;-94
2024/04/18 16:26:24;;;;;;;4.50;1.02;;;;;;;12.61;nan;101156.72;5180002;27;20028;-96
2024/04/18 16:28:49;;;;;;;5.68;0.70;;;;;;;12.96;nan;101164.31;5180457;27;20412;-94
2024/04/18 16:31:14;;;;;;;3.10;0.60;;;;;;;12.77;nan;101156.72;5177178;27;20040;-95
2024/04/18 16:33:40;;;;;;;5.18;0.60;;;;;;;12.78;nan;101154.03;5179983;27;20016;-94
2024/04/18 16:36:05;;;;;;;4.60;0.68;;;;;;;12.71;nan;101147.53;5179688;27;20001;-96
2024/04/18 16:38:31;;;;;;;8.35;1.33;;;;;;;12.41;nan;101145.69;5179538;27;20401;-93
2024/04/18 16:40:56;;;;;;;5.80;0.88;;;;;;;12.26;nan;101143.91;5179784;27;20050;-95
2024/04/18 16:43:21;;;;;;;9.27;0.98;;;;;;;12.33;nan;101147.84;5179087;27;19989;-93
2024/04/18 16:45:47;;;;;;;2.50;0.68;;;;;;;12.33;nan;101150.44;5174892;27;20005;-94
2024/04/18 16:48:12;;;;;;;2.78;0.60;;;;;;;12.30;nan;101152.34;5156333;27;20013;-94
2024/04/18 16:50:37;;;;;;;4.13;1.13;;;;;;;12.23;nan;101144.06;5149807;27;20001;-94
2024/04/18 16:53:03;;;;;;;2.78;0.55;;;;;;;12.06;nan;101149.31;5149122;27;20103;-93
2024/04/18 16:55:28;;;;;;;5.32;0.50;;;;;;;12.03;nan;101154.66;5149024;27;20037;-94
2024/04/18 16:57:54;;;;;;;3.20;0.82;;;;;;;12.03;nan;101149.47;5150220;27;20452;-94
2024/04/18 17:00:20;;;;;;;3.85;0.85;;;;;;;12.28;nan;101152.44;5174876;27;20020;-95
2024/04/18 17:02:45;;;;;;;4.53;0.90;;;;;;;12.52;nan;101146.88;5166194;27;20005;-96
2024/04/18 17:05:12;;;;;;;5.13;0.50;;;;;;;12.46;nan;101142.00;5154012;27;20024;-91
2024/04/18 17:07:49;;;;;;;4.22;0.93;;;;;;;11.91;nan;101161.28;5307097;22;20103;-96
2024/04/18 17:10:16;;;;;;;7.00;0.80;;;;;;;11.66;nan;101149.56;5228361;27;20011;-94
2024/04/18 17:12:47;;;;;;;4.00;0.70;;;;;;;11.67;nan;101137.47;5228561;27;20007;-96
2024/04/18 17:15:13;;;;;;;2.95;0.68;;;;;;;11.54;nan;101143.28;5182951;27;19997;-96
2024/04/18 17:29:21;;;;;;;6.22;0.55;;;;;;;11.55;nan;101124.25;1860156;22;20279;-93
2024/04/18 17:31:46;;;;;;;5.03;0.40;;;;;;;11.30;nan;101116.88;5202341;27;20020;-95
2024/04/18 17:34:12;;;;;;;4.28;0.70;;;;;;;11.41;nan;101129.28;5193907;27;20023;-96
2024/04/18 17:36:38;;;;;;;1.95;0.60;;;;;;;11.32;nan;101111.66;5345562;22;20038;-96
2024/04/18 17:39:03;;;;;;;4.20;0.77;;;;;;;11.38;nan;101113.91;5160659;27;20009;-94
2024/04/18 17:41:35;;;;;;;2.97;0.80;;;;;;;11.27;nan;101113.63;5150426;27;20001;-95
2024/04/18 17:44:06;;;;;;;3.05;0.60;;;;;;;11.08;nan;101101.59;5197304;21;20014;-96
2024/04/18 17:46:34;;;;;;;4.13;0.68;;;;;;;10.80;nan;101106.44;5226802;27;20007;-96
2024/04/18 17:49:04;;;;;;;2.38;0.73;;;;;;;10.96;nan;101091.03;5526683;21;20018;-94
2024/04/18 17:51:30;;;;;;;6.70;0.80;;;;;;;11.13;nan;101086.72;5371659;22;20003;-96
2024/04/18 17:53:56;;;;;;;7.05;1.20;;;;;;;10.91;nan;101092.09;5875466;22;20016;-96
2024/04/18 18:24:57;;;;;;;4.85;1.23;;;;;;;10.28;nan;101092.47;6157955;21;20018;-96
2024/04/18 18:38:57;;;;;;;4.57;0.98;;;;;;;9.96;nan;101111.09;5373734;22;20023;-96
2024/04/18 18:41:25;;;;;;;6.07;1.27;;;;;;;9.97;nan;101092.13;5643719;21;20068;-92
2024/04/18 18:43:51;;;;;;;5.00;0.85;;;;;;;9.93;nan;101104.34;5458046;21;20023;-96
2024/04/18 18:56:49;;;;;;;8.93;3.53;;;;;;;9.71;nan;101101.88;6190979;21;19937;-96
2024/04/18 19:01:50;;;;;;;7.55;1.45;;;;;;;9.58;nan;101088.69;5649921;21;20039;-96
2024/04/18 19:04:16;;;;;;;6.18;1.45;;;;;;;9.59;nan;101081.78;5306203;21;20004;-95
2024/04/18 19:09:16;;;;;;;6.35;1.67;;;;;;;9.71;nan;101076.09;5285078;22;20055;-95
2024/04/18 19:26:59;;;;;;;5.90;1.45;;;;;;;9.36;nan;101091.31;5215969;27;20031;-95
2024/04/18 19:32:00;;;;;;;5.38;1.20;;;;;;;9.43;nan;101087.56;5385155;21;20036;-95
2024/04/18 19:34:27;;;;;;;8.27;1.20;;;;;;;9.45;nan;101084.94;5243865;27;20353;-96
2024/04/18 19:36:53;;;;;;;10.30;1.13;;;;;;;9.34;nan;101087.97;5237495;27;20015;-96
2024/04/18 19:39:22;;;;;;;7.63;1.77;;;;;;;9.40;nan;101089.44;5188482;27;20004;-96
2024/04/18 19:41:47;;;;;;;5.80;1.00;;;;;;;9.48;nan;101089.94;5185307;27;20047;-95
2024/04/18 19:44:13;;;;;;;10.50;1.30;;;;;;;9.24;nan;101076.34;5186156;27;20008;-95
2024/04/18 20:23:29;;;;;;;8.90;2.17;;;;;;;9.19;nan;101067.97;5725475;21;20015;-96
2024/04/18 20:26:02;;;;;;;6.97;1.15;;;;;;;9.22;nan;101062.72;5279652;21;20406;-96
2024/04/18 20:34:02;;;;;;;6.57;1.00;;;;;;;9.08;nan;101044.44;5566398;21;20077;-96
2024/04/18 20:36:28;;;;;;;8.10;1.65;;;;;;;8.95;nan;101060.38;6224842;21;20013;-94
2024/04/18 20:38:59;;;;;;;5.50;1.25;;;;;;;9.14;nan;101062.19;5223194;27;20003;-96
2024/04/18 20:41:25;;;;;;;8.70;1.60;;;;;;;8.97;nan;101050.88;5223496;27;20022;-96
2024/04/18 20:43:54;;;;;;;6.68;1.65;;;;;;;8.97;nan;101053.44;5202330;27;20020;-96
2024/04/18 20:46:50;;;;;;;;;;;;;;;;;;;;;
2024/04/18 20:49:16;;;;;;;11.55;1.55;;;;;;;9.05;nan;101060.03;5457250;22;20019;-96
2024/04/18 20:51:41;;;;;;;6.68;3.05;;;;;;;8.81;nan;101052.38;5209873;27;20014;-95